Aeroporto :
LOGIN :

Iscrizione | Disclaimer

   EN    FR    IT 

 










Sommario :    VFR   VFR Marginale   IFR   IFR Intensivo   IFR Molto Intensivo
Visibilità : 
Base nubi : 
>= 8 km
>= 3000ft
5 / 8 km
1000 / 3000 ft
1500m / 5 km
500 / 1000 ft
800 / 1500m
200 / 500 ft
< 800m
< 200 ft
Simboli :   Temporali  Nebbia  Neve Forte  Precipitazioni Forti  Vento > 20 kt
SIGMETs :   Varie  Temporali  Ghiacco  Turbolenza  Onda orograficha  Ceneri Vulcaniche






- Altitudine del aeroporto : 412 ft
- Codice IATA : ORE


LFOJ - Orleans

ULTIMO METAR :
  • 250500Z AUTO 04006KT CAVOK 10/08 Q1033 NOSIG

METARs OBSOLETI :
  • 250430Z AUTO 03004KT CAVOK 09/08 Q1033 NOSIG
  • 250400Z AUTO 01006KT CAVOK 09/07 Q1033 NOSIG
  • 250330Z AUTO 02003KT CAVOK 09/07 Q1033 NOSIG
  • 250300Z AUTO 02006KT CAVOK 09/08 Q1033 NOSIG
  • 250230Z AUTO 03004KT CAVOK 10/08 Q1033 NOSIG

TAF TAF LFOJ
Valido dal 25 a 03 ore il 26 a 03 ore UTC


250200Z 2503/2603 34005KT CAVOK



MetMap, La meteo Aeronautica in un colpo d'occhio ! - Copyright ORBIFLY Dicembre 2007 - Disclaimer

ORBIFLY MET'MAP TEAM :

Programmazione e sviluppo : Alexandra Zaïnal
Concezione : Baudouin d'Aumeries
Aiuto per la programmazione : Marc-Olivier Méhu
Supporto tecnico e logistico : Manuel Goepfert
Aiuto per la traduzione : Arnaldo La Scala

Contatto : metmap@orbifly.com




FONTI E CREDITI :

   NOAA